createdAt,value
2022-09-02T00:01:38.997Z,2.83
2022-09-02T00:11:45.436Z,2.55
2022-09-02T00:22:01.440Z,2.03
2022-09-02T00:32:06.622Z,1.65
2022-09-02T00:42:11.232Z,2.65
2022-09-02T01:02:24.906Z,3.35
2022-09-02T01:12:34.852Z,4.22
2022-09-02T01:32:55.990Z,1.95
2022-09-02T01:43:14.252Z,1.88
2022-09-02T01:53:19.042Z,2.25
2022-09-02T02:03:34.116Z,2.35
2022-09-02T02:23:43.526Z,2.00
2022-09-02T02:33:59.135Z,2.58
2022-09-02T02:44:04.869Z,1.52
2022-09-02T02:54:15.465Z,7.82
2022-09-02T03:04:20.562Z,12.02
2022-09-02T03:14:25.671Z,11.35
2022-09-02T03:24:35.618Z,13.02
2022-09-02T03:34:46.659Z,10.40
2022-09-02T03:44:52.296Z,14.73
2022-09-02T04:05:15.969Z,25.60
2022-09-02T04:15:27.418Z,14.80
2022-09-02T04:25:45.313Z,20.52
2022-09-02T04:35:53.428Z,17.40
2022-09-02T04:46:08.343Z,15.38
2022-09-02T04:56:20.384Z,20.63
2022-09-02T05:06:35.691Z,17.15
2022-09-02T05:16:46.668Z,18.42
2022-09-02T05:26:55.239Z,12.65
2022-09-02T05:37:02.491Z,13.45
2022-09-02T05:47:09.895Z,9.63
2022-09-02T05:57:17.797Z,8.75
2022-09-02T06:07:38.194Z,6.28
2022-09-02T06:17:43.203Z,5.07
2022-09-02T06:27:49.276Z,6.82
2022-09-02T06:38:01.498Z,5.97
2022-09-02T06:48:17.023Z,3.85
2022-09-02T06:58:22.966Z,4.80
2022-09-02T07:08:31.138Z,2.80
2022-09-02T07:18:37.591Z,2.00
2022-09-02T07:28:53.847Z,2.65
2022-09-02T07:39:12.483Z,3.22
2022-09-02T07:49:29.004Z,1.80
2022-09-02T07:59:43.109Z,2.38
2022-09-02T08:09:48.516Z,2.80
2022-09-02T08:20:03.596Z,3.47
2022-09-02T08:30:12.822Z,1.95
2022-09-02T08:40:24.606Z,2.10
2022-09-02T08:50:33.753Z,1.77
2022-09-02T09:00:43.696Z,2.05
2022-09-02T09:11:22.079Z,1.95
2022-09-02T09:21:37.955Z,1.75
2022-09-02T09:31:43.403Z,1.95
2022-09-02T09:41:50.481Z,1.13
2022-09-02T09:51:58.588Z,1.30
2022-09-02T10:02:12.552Z,1.02
2022-09-02T10:12:34.419Z,1.10
2022-09-02T10:23:05.857Z,1.45
2022-09-02T10:33:30.690Z,1.02
2022-09-02T10:44:00.922Z,1.00
2022-09-02T10:54:24.541Z,1.00
2022-09-02T11:04:49.515Z,1.05
2022-09-02T11:15:21.055Z,1.10
2022-09-02T11:25:27.322Z,1.30
2022-09-02T11:35:38.926Z,0.52
2022-09-02T11:46:24.603Z,1.23
2022-09-02T11:56:36.859Z,1.02
2022-09-02T12:07:10.593Z,1.60
2022-09-02T12:17:51.745Z,1.13
2022-09-02T12:28:28.684Z,2.20
2022-09-02T12:38:35.435Z,1.85
2022-09-02T12:48:59.120Z,2.60
2022-09-02T12:59:08.866Z,3.50
2022-09-02T13:09:44.990Z,3.00
2022-09-02T13:20:11.372Z,2.22
2022-09-02T13:30:54.796Z,2.20
2022-09-02T13:41:04.723Z,2.75
2022-09-02T13:51:18.842Z,2.90
2022-09-02T14:01:38.935Z,3.50
2022-09-02T14:11:49.881Z,3.22
2022-09-02T14:22:03.803Z,2.78
2022-09-02T14:32:16.517Z,4.03
2022-09-02T14:42:21.189Z,4.50
2022-09-02T14:52:37.553Z,3.17
2022-09-02T15:02:45.331Z,3.92
2022-09-02T15:12:51.427Z,4.05
2022-09-02T15:22:55.815Z,3.55
2022-09-02T15:33:05.431Z,3.90
2022-09-02T15:43:10.374Z,4.40
2022-09-02T15:53:16.665Z,5.07
2022-09-02T16:03:21.432Z,5.10
2022-09-02T16:13:37.808Z,4.88
2022-09-02T16:23:42.499Z,5.03
2022-09-02T16:34:01.604Z,3.90
2022-09-02T16:44:10.769Z,3.75
2022-09-02T16:54:36.209Z,3.05
2022-09-02T17:04:43.509Z,3.13
2022-09-02T17:14:48.585Z,2.80
2022-09-02T17:24:53.996Z,2.60
2022-09-02T17:34:59.369Z,3.08
2022-09-02T17:45:14.807Z,3.25
2022-09-02T17:55:20.908Z,4.22
2022-09-02T18:05:50.097Z,4.30
